createdAt,value
2018-02-21T00:02:17.157Z,32.20
2018-02-21T00:04:45.463Z,36.63
2018-02-21T00:07:14.531Z,27.07
2018-02-21T00:09:42.836Z,34.60
2018-02-21T00:12:11.945Z,34.67
2018-02-21T00:14:40.244Z,35.87
2018-02-21T00:17:08.528Z,35.00
2018-02-21T00:19:36.822Z,31.60
2018-02-21T00:22:05.115Z,35.63
2018-02-21T00:24:33.442Z,38.37
2018-02-21T00:27:01.786Z,33.63
2018-02-21T00:29:30.842Z,34.13
2018-02-21T00:31:59.910Z,39.07
2018-02-21T00:34:28.209Z,39.50
2018-02-21T00:36:56.541Z,37.10
2018-02-21T00:39:25.586Z,37.87
2018-02-21T00:41:53.882Z,39.67
2018-02-21T00:44:22.184Z,40.23
2018-02-21T00:46:51.260Z,39.80
2018-02-21T00:49:19.569Z,31.30
2018-02-21T00:51:47.853Z,38.93
2018-02-21T00:54:16.241Z,40.30
2018-02-21T00:56:44.523Z,33.87
2018-02-21T00:59:12.789Z,37.87
2018-02-21T01:01:41.096Z,41.73
2018-02-21T01:04:09.354Z,39.30
2018-02-21T01:06:37.636Z,38.77
2018-02-21T01:09:05.916Z,37.77
2018-02-21T01:11:34.200Z,38.00
2018-02-21T01:14:02.520Z,45.37
2018-02-21T01:16:31.573Z,38.17
2018-02-21T01:18:59.836Z,45.63
2018-02-21T01:21:28.095Z,43.27
2018-02-21T01:26:30.604Z,45.83
2018-02-21T01:28:58.876Z,45.93
2018-02-21T01:31:27.223Z,47.53
2018-02-21T01:33:55.467Z,45.87
2018-02-21T01:36:23.729Z,47.27
2018-02-21T01:38:51.988Z,44.83
2018-02-21T01:41:20.236Z,44.47
2018-02-21T01:43:48.547Z,47.27
2018-02-21T01:46:16.805Z,43.47
2018-02-21T01:48:45.296Z,47.63
2018-02-21T01:51:13.579Z,44.03
2018-02-21T01:53:41.836Z,46.60
2018-02-21T01:56:10.157Z,47.87
2018-02-21T01:58:38.421Z,50.60
2018-02-21T02:01:06.684Z,42.07
2018-02-21T02:03:34.950Z,42.50
2018-02-21T02:06:03.216Z,41.43
2018-02-21T02:08:31.528Z,36.67
2018-02-21T02:10:59.969Z,40.80
2018-02-21T02:13:28.432Z,41.90
2018-02-21T02:15:56.844Z,43.33
2018-02-21T02:18:25.328Z,41.33
2018-02-21T02:20:53.907Z,43.83
2018-02-21T02:23:22.152Z,43.43
2018-02-21T02:25:50.448Z,43.27
2018-02-21T02:28:18.702Z,43.27
2018-02-21T02:30:46.971Z,42.77
2018-02-21T02:33:15.274Z,44.97
2018-02-21T02:35:43.532Z,41.63
2018-02-21T02:41:21.568Z,45.80
2018-02-21T02:43:49.852Z,46.97
2018-02-21T02:46:18.113Z,49.17
2018-02-21T02:48:46.363Z,46.63
2018-02-21T02:51:15.391Z,48.63
2018-02-21T02:53:43.672Z,50.00
2018-02-21T02:56:11.976Z,47.30
2018-02-21T02:58:40.255Z,48.90
2018-02-21T03:01:08.504Z,49.60
2018-02-21T03:03:36.778Z,49.53
2018-02-21T03:06:05.024Z,47.60
2018-02-21T03:08:33.331Z,47.70
2018-02-21T03:11:01.593Z,48.87
2018-02-21T03:13:29.868Z,50.53
2018-02-21T03:15:58.132Z,52.47
2018-02-21T03:18:26.385Z,51.73
2018-02-21T03:20:55.434Z,53.93
2018-02-21T03:23:23.685Z,53.00
2018-02-21T03:25:51.938Z,51.17
2018-02-21T03:28:20.979Z,47.70
2018-02-21T03:30:49.268Z,49.00
2018-02-21T03:33:17.594Z,50.90
2018-02-21T03:35:45.894Z,49.23
2018-02-21T03:38:14.144Z,51.80
2018-02-21T03:40:42.404Z,51.10
2018-02-21T03:43:11.421Z,53.80
2018-02-21T03:45:39.712Z,57.83
2018-02-21T03:48:07.977Z,55.73
2018-02-21T03:50:36.281Z,53.13
2018-02-21T03:53:04.537Z,55.13
2018-02-21T03:55:32.803Z,47.77
2018-02-21T03:58:01.113Z,50.20
2018-02-21T04:00:29.373Z,50.77
2018-02-21T04:02:57.639Z,51.87
2018-02-21T04:05:25.912Z,46.23
2018-02-21T04:07:54.184Z,51.07
2018-02-21T04:10:22.490Z,41.27
2018-02-21T04:12:50.769Z,46.87
2018-02-21T04:15:19.059Z,45.67
2018-02-21T04:17:47.324Z,45.23
2018-02-21T04:20:15.603Z,45.13
2018-02-21T04:22:43.896Z,41.77
2018-02-21T04:25:12.153Z,43.83
2018-02-21T04:27:40.404Z,43.20
2018-02-21T04:30:08.656Z,45.77
2018-02-21T04:32:36.905Z,44.33
2018-02-21T04:35:05.231Z,47.53
2018-02-21T04:37:33.484Z,43.90
2018-02-21T04:40:01.779Z,48.20
2018-02-21T04:42:30.080Z,45.30
2018-02-21T04:44:58.347Z,47.57
2018-02-21T04:47:26.644Z,47.83
2018-02-21T04:49:54.924Z,49.93
2018-02-21T04:52:23.204Z,49.37
2018-02-21T04:55:01.389Z,48.17
2018-02-21T05:00:32.949Z,49.40
2018-02-21T05:03:01.204Z,51.43
2018-02-21T05:05:29.460Z,45.73
2018-02-21T05:07:58.507Z,47.50
2018-02-21T05:10:26.804Z,39.83
2018-02-21T05:12:55.056Z,47.07
2018-02-21T05:15:23.333Z,44.57
2018-02-21T05:17:51.585Z,37.80
2018-02-21T05:20:19.860Z,41.97
2018-02-21T05:22:48.184Z,46.47
2018-02-21T05:25:16.444Z,47.03
2018-02-21T05:27:44.721Z,45.87
2018-02-21T05:30:13.013Z,53.77
2018-02-21T05:32:41.348Z,47.23
2018-02-21T05:35:09.675Z,44.23
2018-02-21T05:37:37.961Z,53.33
2018-02-21T05:40:07.032Z,57.77
2018-02-21T05:42:35.344Z,54.10
2018-02-21T05:45:04.444Z,53.73
2018-02-21T05:47:32.805Z,61.87
2018-02-21T05:50:01.867Z,59.10
2018-02-21T05:52:30.144Z,54.07
2018-02-21T05:54:59.221Z,57.77
2018-02-21T05:57:27.501Z,53.17
2018-02-21T05:59:55.868Z,57.00
2018-02-21T06:02:24.185Z,56.43
2018-02-21T06:04:52.483Z,57.17
2018-02-21T06:07:21.609Z,66.33
2018-02-21T06:09:49.881Z,58.00
2018-02-21T06:12:18.192Z,57.70
2018-02-21T06:14:46.502Z,64.67
2018-02-21T06:17:15.568Z,55.00
2018-02-21T06:19:43.861Z,63.03
2018-02-21T06:22:12.181Z,60.93
2018-02-21T06:24:40.584Z,62.80
2018-02-21T06:27:10.400Z,60.30
2018-02-21T06:29:38.689Z,61.57
2018-02-21T06:32:06.981Z,53.70
2018-02-21T06:34:35.264Z,64.47
2018-02-21T06:37:04.385Z,60.67
2018-02-21T06:39:32.702Z,59.53
2018-02-21T06:42:00.986Z,58.60
2018-02-21T06:44:29.303Z,60.40
2018-02-21T06:46:58.388Z,57.43
2018-02-21T06:49:27.485Z,54.30
2018-02-21T06:51:56.734Z,54.77
2018-02-21T06:54:25.009Z,58.17
2018-02-21T06:56:53.301Z,60.23
2018-02-21T06:59:21.583Z,62.60
2018-02-21T07:01:49.946Z,62.90
2018-02-21T07:04:18.288Z,63.53
2018-02-21T07:06:47.276Z,61.23
2018-02-21T07:09:15.566Z,63.10
2018-02-21T07:11:43.868Z,61.10
2018-02-21T07:14:12.246Z,63.33
2018-02-21T07:16:40.566Z,58.90
2018-02-21T07:19:09.635Z,51.40
2018-02-21T07:21:37.899Z,54.67
2018-02-21T07:24:06.181Z,59.87
2018-02-21T07:26:34.569Z,63.30
2018-02-21T07:29:02.891Z,58.43
2018-02-21T07:31:31.202Z,63.47
2018-02-21T07:33:59.531Z,56.73
2018-02-21T07:36:29.712Z,59.87
2018-02-21T07:38:58.066Z,56.33
2018-02-21T07:41:26.427Z,58.80
2018-02-21T07:43:54.769Z,53.93
2018-02-21T07:46:23.150Z,61.10
2018-02-21T07:48:52.281Z,60.63
2018-02-21T07:51:20.628Z,55.73
2018-02-21T07:53:49.721Z,55.63
2018-02-21T07:56:18.778Z,55.63
2018-02-21T07:58:47.060Z,52.03
2018-02-21T08:01:16.101Z,48.93
2018-02-21T08:03:44.422Z,49.43
2018-02-21T08:06:12.693Z,49.07
2018-02-21T08:08:41.034Z,47.40
2018-02-21T08:11:09.316Z,50.50
2018-02-21T08:13:37.589Z,47.43
2018-02-21T08:16:05.909Z,46.30
2018-02-21T08:18:34.231Z,42.47
2018-02-21T08:21:03.314Z,36.50
2018-02-21T08:23:32.383Z,44.80
2018-02-21T08:26:00.678Z,38.90
2018-02-21T08:28:29.002Z,42.83
2018-02-21T08:30:57.298Z,44.50
2018-02-21T08:33:25.629Z,44.20
2018-02-21T08:35:54.673Z,46.73
2018-02-21T08:38:22.983Z,44.63
2018-02-21T08:40:52.092Z,45.23
2018-02-21T08:43:21.180Z,40.40
2018-02-21T08:45:50.260Z,45.37
2018-02-21T08:48:18.568Z,43.30
2018-02-21T08:50:46.861Z,43.73
2018-02-21T08:53:15.163Z,39.93
2018-02-21T08:55:43.453Z,35.53
2018-02-21T08:58:11.718Z,37.23
2018-02-21T09:00:40.024Z,41.43
2018-02-21T09:03:09.117Z,35.07
2018-02-21T09:05:37.445Z,36.43
2018-02-21T09:08:05.759Z,35.17
2018-02-21T09:10:34.041Z,42.27
2018-02-21T09:13:02.325Z,40.60
2018-02-21T09:15:31.403Z,41.50
2018-02-21T09:17:59.701Z,36.93
2018-02-21T09:20:28.062Z,43.43
2018-02-21T09:22:56.340Z,42.53
2018-02-21T09:25:24.616Z,43.27
2018-02-21T09:27:52.859Z,40.30
2018-02-21T09:30:21.196Z,41.20
2018-02-21T09:32:50.348Z,36.10
2018-02-21T09:35:18.652Z,39.17
2018-02-21T09:37:47.740Z,38.17
2018-02-21T09:40:16.025Z,31.87
2018-02-21T09:42:45.156Z,38.20
2018-02-21T09:45:13.464Z,36.80
2018-02-21T09:47:41.721Z,40.00
2018-02-21T09:50:09.961Z,38.13
2018-02-21T09:52:39.042Z,37.77
2018-02-21T09:55:08.096Z,40.07
2018-02-21T09:57:36.389Z,40.07
2018-02-21T10:00:04.702Z,38.90
2018-02-21T10:02:33.720Z,38.97
2018-02-21T10:05:01.999Z,38.27
2018-02-21T10:07:30.319Z,39.13
2018-02-21T10:09:58.587Z,38.10
2018-02-21T10:12:26.848Z,36.57
2018-02-21T10:14:55.124Z,36.80
2018-02-21T10:17:23.527Z,36.33
2018-02-21T10:19:51.823Z,34.67
2018-02-21T10:22:20.872Z,39.13
2018-02-21T10:24:49.204Z,35.13
2018-02-21T10:27:18.244Z,32.53
2018-02-21T10:29:46.541Z,31.50
2018-02-21T10:32:14.872Z,29.57
2018-02-21T10:34:43.185Z,30.53
2018-02-21T10:37:11.470Z,31.30
2018-02-21T10:39:39.772Z,32.33
2018-02-21T10:42:08.818Z,34.17
2018-02-21T10:44:37.164Z,35.27
2018-02-21T10:47:05.401Z,33.13
2018-02-21T10:49:33.669Z,32.87
2018-02-21T10:52:02.748Z,32.33
2018-02-21T10:54:31.008Z,33.33
2018-02-21T10:56:59.301Z,30.53
2018-02-21T10:59:27.586Z,31.43
2018-02-21T11:01:55.850Z,35.03
2018-02-21T11:04:24.161Z,35.20
2018-02-21T11:06:53.216Z,31.30
2018-02-21T11:09:22.358Z,31.07
2018-02-21T11:11:51.403Z,29.83
2018-02-21T11:14:19.642Z,31.93
2018-02-21T11:16:47.926Z,28.70
2018-02-21T11:19:16.190Z,32.57
2018-02-21T11:21:45.260Z,32.73
2018-02-21T11:24:13.525Z,31.53
2018-02-21T11:26:41.808Z,33.67
2018-02-21T11:29:10.109Z,30.77
2018-02-21T11:31:39.169Z,30.27
2018-02-21T11:34:07.509Z,31.97
2018-02-21T11:36:35.808Z,31.90
2018-02-21T11:39:04.179Z,28.47
2018-02-21T11:41:32.492Z,30.63
2018-02-21T11:44:00.794Z,29.93
2018-02-21T11:46:29.120Z,29.30
2018-02-21T11:48:57.428Z,27.57
2018-02-21T11:51:26.490Z,24.97
2018-02-21T11:53:54.807Z,22.50
2018-02-21T11:56:23.854Z,23.60
2018-02-21T11:58:52.188Z,24.60
2018-02-21T12:01:20.480Z,21.53
2018-02-21T12:03:48.741Z,21.73
2018-02-21T12:06:17.048Z,20.73
2018-02-21T12:08:45.320Z,20.33
2018-02-21T12:11:13.640Z,22.43
2018-02-21T12:13:41.930Z,19.33
2018-02-21T12:16:10.999Z,18.87
2018-02-21T12:18:39.282Z,17.17
2018-02-21T12:21:07.564Z,19.93
2018-02-21T12:23:35.922Z,18.37
2018-02-21T12:26:04.208Z,20.50
2018-02-21T12:28:32.511Z,20.17
2018-02-21T12:31:01.611Z,20.80
2018-02-21T12:33:30.648Z,18.50
2018-02-21T12:35:59.008Z,23.00
2018-02-21T12:38:27.247Z,21.37
2018-02-21T12:41:01.905Z,22.80
2018-02-21T12:43:30.212Z,19.23
2018-02-21T12:45:58.493Z,19.80
2018-02-21T12:48:26.815Z,22.70
2018-02-21T12:50:55.166Z,20.93
2018-02-21T12:53:23.461Z,20.03
2018-02-21T12:55:52.496Z,21.77
2018-02-21T12:58:20.791Z,23.33
2018-02-21T13:00:49.109Z,23.43
2018-02-21T13:03:18.171Z,25.07
2018-02-21T13:05:46.538Z,23.37
2018-02-21T13:08:14.831Z,20.00
2018-02-21T13:10:43.141Z,22.20
2018-02-21T13:13:12.205Z,22.43
2018-02-21T13:15:40.493Z,21.87
2018-02-21T13:18:08.822Z,21.07
2018-02-21T13:20:37.224Z,22.13
2018-02-21T13:23:05.548Z,20.73
2018-02-21T13:25:33.852Z,20.73
2018-02-21T13:28:02.149Z,20.60
2018-02-21T13:30:30.492Z,22.60
2018-02-21T13:32:58.825Z,19.97
2018-02-21T13:35:27.121Z,20.47
2018-02-21T13:37:56.128Z,18.47
2018-02-21T13:40:24.423Z,18.47
2018-02-21T13:42:52.740Z,21.03
2018-02-21T13:45:21.034Z,20.70
2018-02-21T13:47:50.132Z,19.97
2018-02-21T13:50:19.203Z,18.03
2018-02-21T13:52:47.543Z,19.07
2018-02-21T13:55:15.875Z,18.07
2018-02-21T13:57:44.175Z,18.60
2018-02-21T14:00:13.272Z,20.23
2018-02-21T14:02:41.568Z,19.77
2018-02-21T14:05:09.812Z,19.43
2018-02-21T14:07:38.901Z,21.33
2018-02-21T14:10:07.964Z,20.30
2018-02-21T14:12:36.258Z,21.07
2018-02-21T14:15:04.559Z,21.17
2018-02-21T14:17:33.618Z,21.50
2018-02-21T14:20:01.872Z,21.60
2018-02-21T14:22:30.129Z,19.73
2018-02-21T14:24:58.353Z,20.93
2018-02-21T14:27:26.661Z,21.30
2018-02-21T14:29:54.901Z,21.63
2018-02-21T14:32:23.212Z,19.10
2018-02-21T14:34:51.492Z,23.93
2018-02-21T14:37:19.770Z,22.23
2018-02-21T14:39:48.049Z,23.60
2018-02-21T14:42:16.345Z,19.57
2018-02-21T14:44:44.650Z,22.07
2018-02-21T14:47:12.944Z,20.67
2018-02-21T14:49:41.236Z,22.07
2018-02-21T14:52:10.284Z,22.73
2018-02-21T14:54:38.568Z,21.53
2018-02-21T14:57:06.905Z,19.43
2018-02-21T14:59:35.196Z,23.37
2018-02-21T15:02:03.535Z,22.53
2018-02-21T15:04:32.583Z,26.33
2018-02-21T15:07:00.901Z,24.90
2018-02-21T15:09:29.322Z,27.43
2018-02-21T15:11:57.640Z,27.67
2018-02-21T15:14:25.970Z,25.93
2018-02-21T15:16:54.353Z,22.83
2018-02-21T15:19:22.655Z,22.33
2018-02-21T15:21:51.069Z,29.77
2018-02-21T15:24:20.144Z,30.40
2018-02-21T15:26:48.461Z,23.80
2018-02-21T15:29:16.783Z,26.43
2018-02-21T15:31:45.097Z,25.03
2018-02-21T15:34:14.218Z,21.93
2018-02-21T15:36:42.527Z,22.70
2018-02-21T15:39:10.832Z,22.07
2018-02-21T15:41:39.149Z,26.27
2018-02-21T15:44:07.430Z,24.40
2018-02-21T15:46:35.889Z,25.77
2018-02-21T15:49:04.951Z,24.47
2018-02-21T15:51:33.219Z,25.27
2018-02-21T15:54:01.529Z,25.67
2018-02-21T15:56:30.633Z,21.27
2018-02-21T15:59:00.132Z,23.07
2018-02-21T16:01:29.197Z,23.83
2018-02-21T16:03:57.528Z,23.80
2018-02-21T16:06:25.848Z,24.60
2018-02-21T16:08:54.952Z,25.07
2018-02-21T16:11:23.317Z,19.57
2018-02-21T16:13:51.590Z,28.03
2018-02-21T16:16:19.889Z,26.83
2018-02-21T16:18:48.194Z,22.90
2018-02-21T16:21:16.573Z,25.43
2018-02-21T16:23:44.919Z,23.90
2018-02-21T16:26:13.200Z,24.20
2018-02-21T16:28:41.461Z,29.37
2018-02-21T16:31:09.728Z,28.43
2018-02-21T16:33:39.025Z,27.43
2018-02-21T16:36:07.363Z,28.73
2018-02-21T16:38:35.744Z,26.57
2018-02-21T16:41:04.052Z,26.80
2018-02-21T16:43:32.343Z,24.53
2018-02-21T16:46:00.632Z,27.63
2018-02-21T16:48:29.774Z,31.13
2018-02-21T16:50:58.078Z,31.57
2018-02-21T16:53:26.383Z,30.37
2018-02-21T16:55:54.720Z,29.73
2018-02-21T16:58:23.022Z,26.93
2018-02-21T17:00:51.342Z,31.50
2018-02-21T17:03:19.615Z,28.20
2018-02-21T17:05:47.947Z,30.33
2018-02-21T17:08:16.274Z,33.03
2018-02-21T17:10:44.592Z,35.07
2018-02-21T17:13:12.958Z,30.50
2018-02-21T17:15:41.294Z,33.93
2018-02-21T17:18:10.398Z,34.27
2018-02-21T17:20:38.791Z,35.53
2018-02-21T17:23:07.105Z,32.90
2018-02-21T17:25:35.413Z,33.73
2018-02-21T17:28:04.545Z,32.53
2018-02-21T17:30:32.849Z,31.60
2018-02-21T17:33:01.171Z,35.67
2018-02-21T17:35:30.271Z,34.83
2018-02-21T17:40:48.297Z,36.47
2018-02-21T17:43:16.631Z,32.13
2018-02-21T17:45:44.931Z,38.43
2018-02-21T17:48:13.225Z,41.30
2018-02-21T17:50:42.354Z,35.77
2018-02-21T17:53:10.703Z,37.53
2018-02-21T17:55:40.573Z,38.00
2018-02-21T17:58:08.883Z,34.77
2018-02-21T18:00:37.202Z,36.77
2018-02-21T18:03:05.562Z,36.80
2018-02-21T18:05:34.664Z,35.13
2018-02-21T18:08:03.779Z,38.70
2018-02-21T18:10:32.083Z,39.20
2018-02-21T18:13:00.416Z,37.17
2018-02-21T18:15:29.541Z,39.40
2018-02-21T18:17:57.860Z,40.00
2018-02-21T18:20:26.180Z,39.57
2018-02-21T18:22:54.473Z,38.07
2018-02-21T18:25:22.818Z,40.03
2018-02-21T18:27:51.165Z,37.60
2018-02-21T18:30:19.501Z,35.67
2018-02-21T18:32:47.800Z,38.60
2018-02-21T18:35:16.103Z,38.57
2018-02-21T18:37:45.207Z,37.63
2018-02-21T18:40:14.301Z,36.30
2018-02-21T18:42:43.398Z,34.40
2018-02-21T18:45:12.504Z,35.63
2018-02-21T18:47:41.582Z,39.97
2018-02-21T18:50:09.903Z,42.47
2018-02-21T18:52:38.249Z,38.07
2018-02-21T18:55:07.312Z,38.43
2018-02-21T18:57:35.649Z,39.00
2018-02-21T19:00:04.024Z,40.70
2018-02-21T19:02:32.308Z,33.93
2018-02-21T19:05:00.706Z,37.80
2018-02-21T19:07:28.981Z,38.57
2018-02-21T19:09:57.357Z,39.03
2018-02-21T19:12:25.681Z,35.93
2018-02-21T19:14:54.740Z,36.07
2018-02-21T19:17:23.075Z,39.63
2018-02-21T19:19:51.359Z,35.87
2018-02-21T19:22:19.672Z,40.50
2018-02-21T19:24:48.032Z,38.47
2018-02-21T19:27:16.341Z,38.73
2018-02-21T19:29:44.700Z,42.47
2018-02-21T19:32:12.970Z,38.30
2018-02-21T19:34:41.298Z,41.00
2018-02-21T19:37:09.653Z,39.70
2018-02-21T19:39:37.923Z,38.53
2018-02-21T19:42:06.253Z,39.90
2018-02-21T19:44:34.543Z,36.33
2018-02-21T19:47:02.914Z,37.43
2018-02-21T19:49:31.203Z,38.20
2018-02-21T19:51:59.482Z,38.17
2018-02-21T19:54:27.854Z,41.77
2018-02-21T19:56:56.182Z,40.20
2018-02-21T19:59:25.259Z,43.10
2018-02-21T20:01:53.593Z,39.57
2018-02-21T20:04:21.922Z,41.10
2018-02-21T20:06:51.057Z,39.60
2018-02-21T20:09:19.420Z,39.10
2018-02-21T20:11:47.724Z,40.20
2018-02-21T20:14:16.078Z,39.57
2018-02-21T20:16:44.376Z,41.27
2018-02-21T20:19:12.712Z,41.83
2018-02-21T20:21:41.802Z,41.27
2018-02-21T20:24:10.920Z,38.17
2018-02-21T20:26:39.228Z,40.40
2018-02-21T20:29:08.331Z,39.07
2018-02-21T20:31:36.699Z,41.20
2018-02-21T20:34:05.049Z,42.00
2018-02-21T20:36:33.329Z,42.57
2018-02-21T20:39:02.634Z,40.60
2018-02-21T20:41:30.939Z,43.80
2018-02-21T20:43:59.309Z,41.63
2018-02-21T20:46:27.737Z,41.07
2018-02-21T20:48:56.835Z,38.50
2018-02-21T20:51:25.900Z,40.13
2018-02-21T20:53:54.242Z,35.47
2018-02-21T20:56:22.589Z,41.93
2018-02-21T20:58:51.641Z,39.40
2018-02-21T21:01:19.992Z,40.40
2018-02-21T21:03:48.291Z,34.63
2018-02-21T21:06:16.592Z,38.87
2018-02-21T21:08:45.033Z,39.23
2018-02-21T21:11:14.241Z,38.87
2018-02-21T21:13:42.560Z,40.67
2018-02-21T21:16:12.503Z,42.27
2018-02-21T21:18:41.574Z,41.70
2018-02-21T21:21:10.683Z,41.03
2018-02-21T21:23:39.094Z,39.77
2018-02-21T21:26:07.437Z,43.70
2018-02-21T21:28:35.778Z,39.50
2018-02-21T21:31:04.160Z,40.13
2018-02-21T21:33:32.569Z,41.83
2018-02-21T21:36:00.916Z,42.07
2018-02-21T21:38:29.820Z,46.97
2018-02-21T21:40:58.901Z,41.13
2018-02-21T21:43:27.197Z,41.87
2018-02-21T21:45:56.337Z,34.00
2018-02-21T21:48:24.633Z,38.90
2018-02-21T21:50:52.921Z,40.17
2018-02-21T21:53:21.247Z,39.47
2018-02-21T21:55:49.562Z,38.47
2018-02-21T21:58:17.880Z,42.50
2018-02-21T22:00:46.972Z,40.60
2018-02-21T22:03:15.314Z,40.60
2018-02-21T22:05:43.589Z,41.13
2018-02-21T22:08:11.868Z,42.47
2018-02-21T22:10:40.198Z,38.20
2018-02-21T22:13:08.520Z,40.60
2018-02-21T22:15:36.792Z,39.70
2018-02-21T22:18:05.088Z,38.30
2018-02-21T22:20:33.438Z,39.67
2018-02-21T22:23:01.768Z,40.03
2018-02-21T22:25:30.828Z,38.87
2018-02-21T22:27:59.160Z,38.40
2018-02-21T22:30:27.453Z,38.73
2018-02-21T22:32:55.797Z,37.33
2018-02-21T22:35:24.122Z,40.30
2018-02-21T22:37:52.435Z,36.83
2018-02-21T22:40:21.520Z,36.13
2018-02-21T22:42:49.800Z,39.57
2018-02-21T22:45:18.104Z,41.40
2018-02-21T22:47:46.462Z,41.03
2018-02-21T22:50:15.508Z,40.97
2018-02-21T22:52:43.803Z,40.00
2018-02-21T22:55:12.080Z,41.30
2018-02-21T22:57:40.384Z,42.93
2018-02-21T23:00:09.500Z,40.37
2018-02-21T23:02:37.760Z,41.00
2018-02-21T23:05:06.829Z,39.70
2018-02-21T23:07:35.102Z,38.27
2018-02-21T23:10:03.400Z,44.23
2018-02-21T23:12:32.501Z,43.47
2018-02-21T23:15:01.561Z,42.17
2018-02-21T23:17:29.832Z,41.63
2018-02-21T23:19:58.109Z,43.13
2018-02-21T23:22:26.407Z,40.17
2018-02-21T23:24:55.546Z,42.40
2018-02-21T23:27:23.831Z,41.03
2018-02-21T23:29:52.124Z,48.03
2018-02-21T23:32:20.440Z,46.27
2018-02-21T23:34:49.519Z,46.10
2018-02-21T23:37:17.849Z,40.83
2018-02-21T23:39:46.170Z,42.13
2018-02-21T23:42:14.545Z,40.87
2018-02-21T23:44:42.842Z,39.23
2018-02-21T23:47:11.120Z,41.63
2018-02-21T23:49:40.260Z,46.73
2018-02-21T23:52:08.524Z,43.10
2018-02-21T23:54:36.802Z,40.90
2018-02-21T23:57:05.068Z,42.63
2018-02-21T23:59:33.360Z,43.73
